Time;durP1;ratioP1;P1;durP2;ratioP2;P2;SDS_P1;SDS_P2;PMS_P1;PMS_P2;Temp;Humidity;BMP_temperature;BMP_pressure;BME280_temperature;BME280_humidity;BME280_pressure;Samples;Min_cycle;Max_cycle;Signal;HPM_P1;HPM_P2
2023/12/11 00:00:19;;;;;;;35.58;5.57;;;8.60;99.90;;;;;;5053975;28;20044;-71
2023/12/11 00:02:45;;;;;;;34.17;5.53;;;8.60;99.90;;;;;;5053780;28;20044;-71
2023/12/11 00:05:14;;;;;;;28.50;4.60;;;8.60;99.90;;;;;;5054156;28;20125;-71
2023/12/11 00:07:39;;;;;;;35.60;6.40;;;8.60;99.90;;;;;;5053816;28;20122;-71
2023/12/11 00:10:08;;;;;;;44.35;7.03;;;8.60;99.90;;;;;;5053851;28;20053;-71
2023/12/11 00:12:37;;;;;;;33.10;5.65;;;8.60;99.90;;;;;;5054747;28;20098;-70
2023/12/11 00:15:03;;;;;;;36.05;5.75;;;8.80;99.90;;;;;;5053405;28;20139;-70
2023/12/11 00:17:29;;;;;;;38.75;5.10;;;8.80;99.90;;;;;;5053727;28;20037;-70
2023/12/11 00:19:54;;;;;;;27.20;5.22;;;8.80;99.90;;;;;;5053049;28;20049;-70
2023/12/11 00:22:20;;;;;;;33.28;6.45;;;8.90;99.90;;;;;;5054827;28;20099;-71
2023/12/11 00:24:46;;;;;;;32.35;5.88;;;8.80;99.90;;;;;;5053662;28;20393;-70
2023/12/11 00:27:12;;;;;;;36.25;5.88;;;8.80;99.90;;;;;;5052933;28;20048;-70
2023/12/11 00:29:38;;;;;;;50.35;6.00;;;8.80;99.90;;;;;;5052660;28;20504;-71
2023/12/11 00:32:04;;;;;;;31.55;5.00;;;8.80;99.90;;;;;;5053047;28;20072;-71
2023/12/11 00:34:31;;;;;;;33.17;5.00;;;8.80;99.90;;;;;;5052865;28;20106;-71
2023/12/11 00:36:56;;;;;;;33.20;5.25;;;8.90;99.90;;;;;;5053752;28;20063;-70
2023/12/11 00:39:25;;;;;;;35.95;6.57;;;9.00;99.90;;;;;;5053271;28;20057;-70
2023/12/11 00:41:50;;;;;;;35.08;5.95;;;9.00;99.90;;;;;;5052769;28;20045;-71
2023/12/11 00:44:19;;;;;;;33.97;6.25;;;9.00;99.90;;;;;;5052894;28;20404;-71
2023/12/11 00:46:45;;;;;;;30.70;5.03;;;9.00;99.90;;;;;;5053870;28;20055;-70
2023/12/11 00:49:11;;;;;;;34.42;5.18;;;9.10;99.90;;;;;;5053389;28;20045;-70
2023/12/11 00:51:36;;;;;;;25.38;5.13;;;9.10;99.90;;;;;;5053114;28;20045;-70
2023/12/11 00:54:05;;;;;;;38.13;5.53;;;9.00;99.90;;;;;;5052657;28;20052;-70
2023/12/11 00:56:37;;;;;;;33.80;4.80;;;9.00;99.90;;;;;;5053520;28;20130;-71
2023/12/11 00:59:02;;;;;;;31.13;4.82;;;9.00;99.90;;;;;;5054044;28;20103;-71
2023/12/11 01:01:31;;;;;;;28.85;5.55;;;9.10;99.90;;;;;;5053514;28;20496;-71
2023/12/11 01:03:56;;;;;;;35.70;5.45;;;9.00;99.90;;;;;;5054442;28;20033;-70
2023/12/11 01:06:22;;;;;;;34.60;5.85;;;9.00;99.90;;;;;;5054023;28;20056;-71
2023/12/11 01:08:48;;;;;;;28.02;5.07;;;9.00;99.90;;;;;;5051583;28;20069;-71
2023/12/11 01:11:13;;;;;;;30.15;5.28;;;9.00;99.90;;;;;;5052934;28;20045;-71
2023/12/11 01:13:39;;;;;;;28.23;5.45;;;9.00;99.90;;;;;;5054127;28;20037;-71
2023/12/11 01:16:05;;;;;;;28.60;4.72;;;9.10;99.90;;;;;;5051653;28;20124;-70
2023/12/11 01:18:31;;;;;;;24.15;4.43;;;9.10;99.90;;;;;;5052613;28;20052;-71
2023/12/11 01:20:57;;;;;;;30.83;5.07;;;9.10;99.90;;;;;;5051839;28;20041;-71
2023/12/11 01:23:22;;;;;;;33.50;5.05;;;9.00;99.90;;;;;;5052772;28;20044;-70
2023/12/11 01:25:48;;;;;;;32.38;5.10;;;9.10;99.90;;;;;;5052483;28;20049;-70
2023/12/11 01:28:14;;;;;;;27.17;4.70;;;9.00;99.90;;;;;;5053888;28;20080;-70
2023/12/11 01:30:39;;;;;;;25.67;4.38;;;8.90;99.90;;;;;;5051844;28;20044;-70
2023/12/11 01:33:05;;;;;;;27.63;4.40;;;9.00;99.90;;;;;;5052768;28;20049;-70
2023/12/11 01:35:33;;;;;;;25.67;4.13;;;9.00;99.90;;;;;;5053182;28;20071;-70
2023/12/11 01:37:59;;;;;;;29.02;4.90;;;8.90;99.90;;;;;;5051463;28;20049;-70
2023/12/11 01:40:25;;;;;;;32.42;4.40;;;8.90;99.90;;;;;;5052579;28;20037;-70
2023/12/11 01:42:51;;;;;;;27.50;4.43;;;8.80;99.90;;;;;;5053294;28;20044;-70
2023/12/11 01:45:17;;;;;;;35.55;4.35;;;8.90;99.90;;;;;;5051523;28;20052;-70
2023/12/11 01:47:44;;;;;;;37.85;5.20;;;8.90;99.90;;;;;;5051810;28;20168;-70
2023/12/11 01:50:09;;;;;;;31.25;5.50;;;8.90;99.90;;;;;;5049249;28;20473;-70
2023/12/11 01:52:50;;;;;;;26.42;4.30;;;8.80;99.90;;;;;;5052143;28;20049;-70
2023/12/11 01:55:16;;;;;;;20.70;3.97;;;8.80;99.90;;;;;;5052114;28;20132;-70
2023/12/11 01:57:43;;;;;;;26.45;5.20;;;8.80;99.90;;;;;;5052391;28;20127;-70
2023/12/11 02:00:09;;;;;;;24.73;4.75;;;8.80;99.90;;;;;;5053164;28;20384;-70
2023/12/11 02:02:35;;;;;;;30.70;4.68;;;8.80;99.90;;;;;;5051782;28;20040;-70
2023/12/11 02:05:01;;;;;;;26.20;5.20;;;8.70;99.90;;;;;;5051209;28;20048;-70
2023/12/11 02:07:27;;;;;;;34.08;5.15;;;8.80;99.90;;;;;;5052133;28;20053;-70
2023/12/11 02:09:55;;;;;;;28.10;4.75;;;8.80;99.90;;;;;;5051850;28;20095;-70
2023/12/11 02:12:21;;;;;;;30.17;4.53;;;8.80;99.90;;;;;;5051608;28;20080;-70
2023/12/11 02:14:47;;;;;;;31.50;5.40;;;8.90;99.90;;;;;;5053070;28;20056;-70
2023/12/11 02:17:13;;;;;;;30.55;5.25;;;10.10;99.90;;;;;;5052795;28;20036;-70
2023/12/11 02:19:38;;;;;;;39.60;4.95;;;8.80;99.90;;;;;;5050852;28;20132;-69
2023/12/11 02:22:04;;;;;;;27.92;4.57;;;8.90;99.90;;;;;;5051411;28;20393;-70
2023/12/11 02:24:35;;;;;;;25.60;4.78;;;8.80;99.90;;;;;;5052847;28;20665;-70
2023/12/11 02:27:02;;;;;;;29.38;5.30;;;8.90;99.90;;;;;;5050841;28;20128;-70
2023/12/11 02:29:27;;;;;;;30.00;5.65;;;9.00;99.90;;;;;;5051583;28;20523;-70
2023/12/11 02:31:53;;;;;;;36.10;5.65;;;8.90;99.90;;;;;;5051521;28;20076;-70
2023/12/11 02:34:18;;;;;;;29.65;5.88;;;8.90;99.90;;;;;;5051769;28;20060;-70
2023/12/11 02:36:47;;;;;;;30.50;5.80;;;8.80;99.90;;;;;;5052711;28;20037;-70
2023/12/11 02:39:13;;;;;;;40.50;6.22;;;8.80;99.90;;;;;;5049558;28;20052;-70
2023/12/11 02:41:42;;;;;;;34.53;5.30;;;8.80;99.90;;;;;;5051279;28;20049;-70
2023/12/11 02:44:08;;;;;;;44.80;6.00;;;8.80;99.90;;;;;;5051261;28;20048;-70
2023/12/11 02:46:33;;;;;;;29.85;5.13;;;8.80;99.90;;;;;;5050620;28;20049;-70
2023/12/11 02:48:59;;;;;;;28.48;4.60;;;8.80;99.90;;;;;;5050790;28;20048;-70
2023/12/11 02:51:25;;;;;;;30.63;5.45;;;8.80;99.90;;;;;;5051180;28;20041;-70
2023/12/11 02:53:50;;;;;;;36.83;6.88;;;8.80;99.90;;;;;;5050101;28;20119;-70
2023/12/11 02:56:16;;;;;;;43.03;6.68;;;8.80;99.90;;;;;;5052168;28;20053;-70
2023/12/11 02:58:44;;;;;;;35.67;7.35;;;8.80;99.90;;;;;;5051490;28;20045;-70
2023/12/11 03:01:10;;;;;;;37.38;5.93;;;8.90;99.90;;;;;;5049872;28;20056;-70
2023/12/11 03:03:35;;;;;;;39.40;6.15;;;8.80;99.90;;;;;;5051431;28;20405;-70
2023/12/11 03:06:03;;;;;;;30.00;5.03;;;8.80;99.90;;;;;;5052294;28;20052;-70
2023/12/11 03:08:29;;;;;;;27.80;5.30;;;8.80;99.90;;;;;;5051453;28;20127;-70
2023/12/11 03:10:55;;;;;;;31.65;5.03;;;8.90;99.90;;;;;;5050976;28;20468;-70
2023/12/11 03:13:21;;;;;;;35.53;5.90;;;8.90;99.90;;;;;;5050702;28;20041;-70
2023/12/11 03:15:46;;;;;;;28.85;5.43;;;8.90;99.90;;;;;;5051439;28;20037;-70
2023/12/11 03:18:12;;;;;;;28.27;5.32;;;9.00;99.90;;;;;;5050303;28;20049;-70
2023/12/11 03:20:38;;;;;;;27.30;5.57;;;9.00;99.90;;;;;;5052045;28;20067;-70
2023/12/11 03:23:03;;;;;;;;;;;8.90;99.90;;;;;;5050151;28;20064;-70
2023/12/11 03:25:29;;;;;;;40.85;5.95;;;8.90;99.90;;;;;;5050933;28;19917;-70
2023/12/11 03:27:54;;;;;;;40.30;6.10;;;8.90;99.90;;;;;;5051938;28;20045;-70
2023/12/11 03:30:20;;;;;;;37.88;6.38;;;8.80;99.90;;;;;;5049633;28;20049;-70
2023/12/11 03:32:46;;;;;;;34.15;5.50;;;8.80;99.90;;;;;;5052031;28;20087;-70
2023/12/11 03:35:11;;;;;;;40.67;6.70;;;8.80;99.90;;;;;;5051137;28;20052;-70
2023/12/11 03:37:40;;;;;;;38.65;6.15;;;8.70;99.90;;;;;;5049970;28;20489;-70
2023/12/11 03:40:06;;;;;;;35.45;6.70;;;8.70;99.90;;;;;;5051359;28;20057;-69
2023/12/11 03:42:31;;;;;;;25.50;5.68;;;8.80;99.90;;;;;;5049903;28;20098;-70
2023/12/11 03:44:58;;;;;;;34.20;6.07;;;8.80;99.90;;;;;;5050962;28;20435;-70
2023/12/11 03:47:24;;;;;;;24.80;5.72;;;8.80;99.90;;;;;;5052292;28;20045;-70
2023/12/11 03:49:50;;;;;;;34.53;5.03;;;8.90;99.90;;;;;;5050231;28;20114;-69
2023/12/11 03:52:22;;;;;;;32.38;5.55;;;9.00;99.90;;;;;;5051607;28;20045;-70
2023/12/11 03:54:50;;;;;;;37.50;5.55;;;8.90;99.90;;;;;;5052156;28;20477;-70
2023/12/11 03:57:16;;;;;;;25.85;5.57;;;8.90;99.90;;;;;;5050493;28;20539;-69
2023/12/11 03:59:42;;;;;;;30.60;5.80;;;8.90;99.90;;;;;;5050377;28;20049;-69
2023/12/11 04:02:07;;;;;;;40.15;6.03;;;8.90;99.90;;;;;;5051761;28;20044;-70
2023/12/11 04:04:33;;;;;;;31.95;5.20;;;8.90;99.90;;;;;;5050884;28;20049;-70
2023/12/11 04:06:59;;;;;;;32.78;4.85;;;9.10;99.90;;;;;;5054065;28;20492;-69
2023/12/11 04:09:24;;;;;;;33.22;5.30;;;9.10;99.90;;;;;;5054311;28;20102;-70
2023/12/11 04:11:50;;;;;;;29.50;6.65;;;9.00;99.90;;;;;;5053503;28;20538;-70
2023/12/11 04:14:16;;;;;;;29.60;5.13;;;9.00;99.90;;;;;;5053980;28;20455;-70
2023/12/11 04:16:42;;;;;;;26.85;5.25;;;9.00;99.90;;;;;;5055299;28;20055;-69
2023/12/11 04:19:08;;;;;;;31.65;5.28;;;9.00;99.90;;;;;;5052809;28;20049;-69
2023/12/11 04:21:33;;;;;;;22.10;4.70;;;9.00;99.90;;;;;;5053977;28;20396;-69
2023/12/11 04:23:59;;;;;;;30.55;5.82;;;9.10;99.90;;;;;;5055017;28;20400;-69
2023/12/11 04:26:25;;;;;;;36.42;5.45;;;9.00;99.90;;;;;;5054263;28;20056;-70
2023/12/11 04:28:50;;;;;;;28.38;5.15;;;9.00;99.90;;;;;;5054915;28;20041;-69
2023/12/11 04:31:21;;;;;;;25.23;4.38;;;8.90;99.90;;;;;;5054730;28;20048;-70
2023/12/11 04:33:46;;;;;;;37.47;5.22;;;9.00;99.90;;;;;;5052486;28;20057;-70
2023/12/11 04:36:12;;;;;;;26.23;4.30;;;9.00;99.90;;;;;;5053075;28;20499;-70
2023/12/11 04:38:38;;;;;;;;;;;9.00;99.90;;;;;;5054049;28;20051;-70
2023/12/11 04:41:04;;;;;;;30.63;5.70;;;9.00;99.90;;;;;;5051979;28;19921;-70
2023/12/11 04:43:29;;;;;;;25.25;4.43;;;9.00;99.90;;;;;;5051872;28;20052;-71
2023/12/11 04:45:55;;;;;;;36.75;4.78;;;9.00;99.90;;;;;;5053446;28;20125;-70
2023/12/11 04:48:23;;;;;;;28.88;4.30;;;8.90;99.90;;;;;;5053082;28;20079;-71
2023/12/11 04:50:52;;;;;;;27.23;4.70;;;9.00;99.90;;;;;;5054743;28;20133;-69
2023/12/11 04:53:17;;;;;;;28.23;4.47;;;9.00;99.90;;;;;;5052222;28;20477;-70
2023/12/11 04:55:43;;;;;;;27.80;5.13;;;9.00;99.90;;;;;;5053559;28;20040;-69
2023/12/11 04:58:09;;;;;;;24.85;4.30;;;9.00;99.90;;;;;;5054304;28;20476;-70
2023/12/11 05:00:35;;;;;;;29.88;4.70;;;9.00;99.90;;;;;;5052271;28;20044;-71
2023/12/11 05:03:00;;;;;;;28.30;4.97;;;9.10;99.90;;;;;;5054013;28;20453;-70
2023/12/11 05:05:26;;;;;;;25.38;4.22;;;9.10;99.90;;;;;;5053110;28;20076;-71
2023/12/11 05:07:52;;;;;;;24.00;4.85;;;9.10;99.90;;;;;;5052455;28;20052;-71
2023/12/11 05:10:17;;;;;;;27.27;4.30;;;9.10;99.90;;;;;;5054282;28;20507;-71
2023/12/11 05:12:43;;;;;;;;;;;9.10;99.90;;;;;;5052784;28;20044;-71
2023/12/11 05:15:12;;;;;;;22.00;4.45;;;9.10;99.90;;;;;;5051659;28;19960;-71
2023/12/11 05:17:37;;;;;;;20.17;3.90;;;9.10;99.90;;;;;;5052439;28;20045;-71
2023/12/11 05:20:07;;;;;;;21.10;4.20;;;9.20;99.90;;;;;;5052504;28;20057;-70
2023/12/11 05:22:35;;;;;;;23.33;4.18;;;9.20;99.90;;;;;;5051669;28;20041;-71
2023/12/11 05:25:01;;;;;;;25.10;4.80;;;9.10;99.90;;;;;;5052463;28;20113;-71
2023/12/11 05:27:33;;;;;;;24.92;4.43;;;9.20;99.90;;;;;;5053264;28;20041;-71
2023/12/11 05:29:58;;;;;;;26.02;4.32;;;9.20;99.90;;;;;;5051854;28;20053;-71
2023/12/11 05:32:24;;;;;;;21.95;3.78;;;9.20;99.90;;;;;;5051851;28;20056;-70
2023/12/11 05:34:50;;;;;;;25.60;4.15;;;9.10;99.90;;;;;;5052182;28;20149;-71
2023/12/11 05:37:15;;;;;;;24.35;4.75;;;9.10;99.90;;;;;;5052407;28;20120;-70
2023/12/11 05:39:41;;;;;;;31.48;4.38;;;9.20;99.90;;;;;;5052490;28;20116;-71
2023/12/11 05:42:07;;;;;;;21.60;4.22;;;9.20;99.90;;;;;;5051376;28;20481;-71
2023/12/11 05:44:35;;;;;;;22.67;3.80;;;9.20;99.90;;;;;;5051778;28;20135;-70
2023/12/11 05:47:01;;;;;;;19.27;3.95;;;9.20;99.90;;;;;;5053013;28;20045;-69
2023/12/11 05:49:27;;;;;;;24.55;4.05;;;9.20;99.90;;;;;;5052700;28;20125;-68
2023/12/11 05:51:53;;;;;;;20.13;3.42;;;9.20;99.90;;;;;;5053551;28;20048;-71
2023/12/11 05:54:19;;;;;;;22.15;4.85;;;9.10;99.90;;;;;;5052236;28;20045;-71
2023/12/11 05:56:44;;;;;;;24.20;4.03;;;9.10;99.90;;;;;;5052631;28;20041;-72
2023/12/11 05:59:10;;;;;;;30.38;4.15;;;9.10;99.90;;;;;;5052566;28;20037;-71
2023/12/11 06:01:36;;;;;;;14.65;3.08;;;9.10;99.90;;;;;;5051417;28;20390;-75
2023/12/11 06:04:05;;;;;;;28.15;4.50;;;9.20;99.90;;;;;;5051751;28;20478;-71
2023/12/11 06:06:30;;;;;;;27.67;4.45;;;9.10;99.90;;;;;;5052942;28;20045;-72
2023/12/11 06:08:56;;;;;;;30.38;4.47;;;9.10;99.90;;;;;;5051948;28;20048;-72
2023/12/11 06:11:22;;;;;;;17.65;4.20;;;9.00;99.90;;;;;;5052312;28;20090;-70
2023/12/11 06:13:47;;;;;;;18.17;3.95;;;9.10;99.90;;;;;;5053345;28;20063;-71
2023/12/11 06:16:13;;;;;;;19.50;3.53;;;9.00;99.90;;;;;;5052570;28;20049;-71
2023/12/11 06:18:39;;;;;;;25.63;4.35;;;9.00;99.90;;;;;;5050706;28;20098;-71
2023/12/11 06:21:05;;;;;;;26.55;4.35;;;9.00;99.90;;;;;;5051075;28;20051;-70
2023/12/11 06:23:30;;;;;;;26.60;4.22;;;9.00;99.90;;;;;;5052952;28;20037;-73
2023/12/11 06:25:56;;;;;;;27.48;5.32;;;9.00;99.90;;;;;;5050547;28;20041;-74
2023/12/11 06:28:22;;;;;;;23.05;3.53;;;9.10;99.90;;;;;;5050405;28;20488;-73
2023/12/11 06:30:53;;;;;;;22.73;4.93;;;9.10;99.90;;;;;;5051422;28;20080;-78
2023/12/11 06:33:19;;;;;;;23.80;3.80;;;9.10;99.90;;;;;;5047086;28;20052;-70
2023/12/11 06:35:45;;;;;;;19.05;3.60;;;9.10;99.90;;;;;;5050543;28;20410;-68
2023/12/11 06:38:10;;;;;;;25.77;3.63;;;9.00;99.90;;;;;;5048602;28;20053;-69
2023/12/11 06:40:36;;;;;;;22.13;3.97;;;8.90;99.90;;;;;;5048930;28;20059;-68
2023/12/11 06:43:05;;;;;;;12.98;2.50;;;8.90;99.90;;;;;;5046575;28;20109;-69
2023/12/11 06:45:30;;;;;;;22.20;3.17;;;9.10;99.90;;;;;;5047067;28;20473;-69
2023/12/11 06:47:56;;;;;;;23.95;4.28;;;9.00;99.90;;;;;;5048980;28;20060;-69
2023/12/11 06:50:22;;;;;;;19.35;3.60;;;8.90;99.90;;;;;;5049569;28;20045;-69
2023/12/11 06:52:48;;;;;;;21.88;3.50;;;8.90;99.90;;;;;;5048391;28;20484;-69
2023/12/11 06:55:13;;;;;;;23.77;3.47;;;8.90;99.90;;;;;;5049736;28;20041;-69
2023/12/11 06:57:39;;;;;;;16.08;2.95;;;8.80;99.90;;;;;;5049159;28;20128;-69
2023/12/11 07:00:06;;;;;;;23.63;3.10;;;8.90;99.90;;;;;;5049183;28;20045;-69
2023/12/11 07:02:41;;;;;;;23.98;3.63;;;8.90;99.90;;;;;;5051247;28;20455;-69
2023/12/11 07:05:07;;;;;;;21.85;3.88;;;8.80;99.90;;;;;;5051797;28;20401;-69
2023/12/11 07:07:35;;;;;;;23.48;3.47;;;8.80;99.90;;;;;;5049927;28;20056;-69
2023/12/11 07:10:04;;;;;;;22.52;3.60;;;8.80;99.90;;;;;;5052080;28;20065;-68
2023/12/11 07:12:30;;;;;;;24.38;3.40;;;8.80;99.90;;;;;;5052582;28;20049;-69
2023/12/11 07:14:56;;;;;;;15.48;3.47;;;8.70;99.90;;;;;;5051451;28;20048;-69
2023/12/11 07:17:22;;;;;;;23.23;3.38;;;8.70;99.90;;;;;;5052108;28;20477;-68
2023/12/11 07:19:47;;;;;;;;;;;8.80;99.90;;;;;;5052930;28;20041;-69
2023/12/11 07:22:13;;;;;;;19.73;3.00;;;8.80;99.90;;;;;;5049827;28;20019;-68
2023/12/11 07:24:39;;;;;;;15.52;3.55;;;8.70;99.90;;;;;;5052159;28;20037;-69
2023/12/11 07:27:04;;;;;;;18.77;2.58;;;8.60;99.90;;;;;;5051874;28;20048;-69
2023/12/11 07:29:30;;;;;;;22.83;3.15;;;8.70;99.90;;;;;;5051663;28;20608;-69
2023/12/11 07:31:56;;;;;;;13.82;3.65;;;8.60;99.90;;;;;;5052018;28;20041;-69
2023/12/11 07:34:22;;;;;;;16.42;2.88;;;8.50;99.90;;;;;;5050803;28;20127;-69
2023/12/11 07:36:51;;;;;;;19.10;3.75;;;8.60;99.90;;;;;;5050843;28;20045;-68
2023/12/11 07:39:17;;;;;;;12.98;3.20;;;8.50;99.90;;;;;;5051820;28;20080;-68
2023/12/11 07:41:42;;;;;;;13.98;2.95;;;8.60;99.90;;;;;;5055333;28;20120;-69
2023/12/11 07:44:08;;;;;;;15.82;2.80;;;8.50;99.90;;;;;;5055763;28;20380;-69
2023/12/11 07:46:33;;;;;;;15.57;3.00;;;8.60;99.90;;;;;;5055287;28;20052;-69
2023/12/11 07:49:05;;;;;;;14.95;2.75;;;8.50;99.90;;;;;;5053822;28;20060;-69
2023/12/11 07:51:33;;;;;;;16.70;2.78;;;8.60;99.90;;;;;;5055744;28;20401;-69
2023/12/11 07:53:59;;;;;;;17.23;2.97;;;8.50;99.90;;;;;;5055211;28;20405;-69
2023/12/11 07:56:25;;;;;;;20.50;3.20;;;8.50;99.90;;;;;;5054634;28;20056;-69
2023/12/11 07:58:51;;;;;;;19.52;3.20;;;8.60;99.90;;;;;;5054378;28;20099;-69
2023/12/11 08:01:17;;;;;;;18.17;3.05;;;8.60;99.90;;;;;;5055496;28;20048;-69
2023/12/11 08:03:43;;;;;;;31.08;4.18;;;8.60;99.90;;;;;;5054795;28;20051;-69
2023/12/11 08:06:09;;;;;;;23.08;3.72;;;8.60;99.90;;;;;;5055043;28;20049;-69
2023/12/11 08:08:47;;;;;;;19.27;3.60;;;8.60;99.90;;;;;;5053983;28;20033;-69
2023/12/11 08:11:21;;;;;;;24.58;3.38;;;8.70;99.90;;;;;;5054124;28;20060;-69
2023/12/11 08:13:47;;;;;;;22.10;3.72;;;8.60;99.90;;;;;;5055412;28;20041;-69
2023/12/11 08:16:14;;;;;;;19.95;3.53;;;8.70;99.90;;;;;;5054969;28;20055;-69
2023/12/11 08:18:48;;;;;;;26.83;4.03;;;8.60;99.90;;;;;;5054467;28;20116;-68
2023/12/11 08:21:14;;;;;;;18.52;3.20;;;8.60;99.90;;;;;;5054605;28;20081;-71
2023/12/11 08:23:42;;;;;;;19.35;4.22;;;8.70;99.90;;;;;;5054895;28;20052;-70
2023/12/11 08:26:09;;;;;;;22.95;4.47;;;8.70;99.90;;;;;;5054157;28;20041;-72
2023/12/11 08:28:34;;;;;;;22.90;4.82;;;8.70;99.90;;;;;;5053982;28;20048;-70
2023/12/11 08:31:00;;;;;;;27.60;6.00;;;8.70;99.90;;;;;;5031913;28;20488;-70
2023/12/11 08:33:26;;;;;;;25.13;7.97;;;8.70;99.90;;;;;;5051598;28;20049;-69
2023/12/11 08:35:53;;;;;;;24.27;7.75;;;8.70;99.90;;;;;;5051909;28;20064;-69
2023/12/11 08:38:21;;;;;;;16.40;5.88;;;8.80;99.90;;;;;;5047273;28;20083;-70
2023/12/11 08:40:47;;;;;;;18.30;5.05;;;8.80;99.90;;;;;;5051766;28;20076;-69
2023/12/11 08:43:12;;;;;;;15.95;4.30;;;8.80;99.90;;;;;;5054059;28;20037;-74
2023/12/11 08:45:38;;;;;;;20.05;3.55;;;8.80;99.90;;;;;;5053852;28;20048;-70
2023/12/11 08:48:07;;;;;;;16.00;2.88;;;8.80;99.90;;;;;;5054464;28;20045;-72
2023/12/11 08:50:36;;;;;;;15.38;2.78;;;8.90;99.90;;;;;;5053188;28;20041;-70
2023/12/11 08:53:05;;;;;;;13.30;3.08;;;8.90;99.90;;;;;;5051763;28;20381;-72
2023/12/11 08:55:30;;;;;;;16.25;2.30;;;8.90;99.90;;;;;;5053552;28;20098;-68
2023/12/11 08:57:56;;;;;;;16.13;3.10;;;8.90;99.90;;;;;;5054094;28;20037;-69
2023/12/11 09:00:25;;;;;;;16.27;2.63;;;8.90;99.90;;;;;;5050740;28;20043;-69
2023/12/11 09:02:53;;;;;;;11.32;2.22;;;8.90;99.90;;;;;;5053876;28;20048;-69
2023/12/11 09:05:19;;;;;;;17.60;2.60;;;8.90;99.90;;;;;;5053364;28;20037;-70
2023/12/11 09:07:48;;;;;;;14.38;2.28;;;8.90;99.90;;;;;;5051764;28;20036;-69
2023/12/11 09:10:16;;;;;;;10.68;2.40;;;9.00;99.90;;;;;;5050781;28;20043;-70
2023/12/11 09:12:42;;;;;;;17.60;2.58;;;9.10;99.90;;;;;;5063467;28;20041;-69
2023/12/11 09:15:08;;;;;;;12.48;2.85;;;9.00;99.90;;;;;;5016272;28;20041;-71
2023/12/11 09:17:34;;;;;;;17.65;2.67;;;9.00;99.90;;;;;;5051575;28;20473;-70
2023/12/11 09:20:04;;;;;;;17.40;3.28;;;9.10;99.90;;;;;;5050284;28;20044;-70
2023/12/11 09:22:30;;;;;;;17.25;3.20;;;9.10;99.90;;;;;;5051982;28;20506;-69
2023/12/11 09:24:58;;;;;;;19.52;3.35;;;9.10;99.90;;;;;;5052366;28;20481;-71
2023/12/11 09:27:25;;;;;;;23.65;3.25;;;9.10;99.90;;;;;;5052496;28;20037;-71
2023/12/11 09:29:54;;;;;;;13.75;3.10;;;9.20;99.90;;;;;;5052095;28;20444;-71
2023/12/11 09:32:21;;;;;;;12.07;2.58;;;9.30;99.90;;;;;;5047363;28;20049;-73
2023/12/11 09:34:46;;;;;;;21.50;2.75;;;9.40;99.90;;;;;;5052486;28;20045;-71
2023/12/11 09:37:13;;;;;;;18.00;2.97;;;9.50;99.90;;;;;;5052825;28;20060;-71
2023/12/11 09:39:39;;;;;;;21.13;3.10;;;9.90;99.90;;;;;;5053399;28;20049;-71
2023/12/11 09:42:11;;;;;;;17.55;3.80;;;10.10;99.90;;;;;;5052069;28;20048;-71
2023/12/11 09:44:47;;;;;;;14.23;4.47;;;10.10;99.90;;;;;;5052161;28;20098;-71
2023/12/11 09:47:26;;;;;;;15.95;3.28;;;10.10;99.90;;;;;;5051609;28;20061;-71
2023/12/11 09:49:51;;;;;;;15.85;4.68;;;10.00;99.90;;;;;;5051380;28;20425;-71
2023/12/11 09:52:18;;;;;;;21.42;4.18;;;10.00;99.90;;;;;;5052565;28;20080;-71
2023/12/11 09:54:44;;;;;;;20.23;3.53;;;10.00;99.90;;;;;;5052768;28;20044;-71
2023/12/11 09:57:12;;;;;;;17.02;2.80;;;9.90;99.90;;;;;;5050637;28;20041;-71
2023/12/11 09:59:40;;;;;;;16.33;3.05;;;9.90;99.90;;;;;;5052702;28;20488;-70
2023/12/11 10:02:14;;;;;;;16.83;3.25;;;9.90;99.90;;;;;;5050525;28;20060;-71
2023/12/11 10:05:04;;;;;;;16.98;2.75;;;9.90;99.90;;;;;;5051803;28;20119;-71
2023/12/11 10:07:32;;;;;;;12.98;3.05;;;9.90;99.90;;;;;;5053010;28;20171;-71
2023/12/11 10:09:59;;;;;;;18.38;2.67;;;9.90;99.90;;;;;;5050821;28;20049;-71
2023/12/11 10:12:24;;;;;;;11.57;2.70;;;9.90;99.90;;;;;;5051821;28;20095;-69
2023/12/11 10:15:02;;;;;;;15.90;3.40;;;9.90;99.90;;;;;;5052536;28;20048;-71
2023/12/11 10:17:29;;;;;;;18.25;3.03;;;9.90;99.90;;;;;;5048494;28;20053;-71
2023/12/11 10:19:55;;;;;;;12.43;2.78;;;9.90;99.90;;;;;;5050572;28;20059;-71
2023/12/11 10:22:31;;;;;;;18.20;3.42;;;9.90;99.90;;;;;;5050795;28;20045;-70
2023/12/11 10:24:58;;;;;;;20.17;3.10;;;9.80;99.90;;;;;;5050159;28;20053;-70
2023/12/11 10:27:25;;;;;;;14.75;3.00;;;9.90;99.90;;;;;;5052346;28;20377;-70
2023/12/11 10:30:14;;;;;;;22.20;3.55;;;9.80;99.90;;;;;;5052468;28;20049;-70
2023/12/11 10:32:40;;;;;;;17.38;2.85;;;9.80;99.90;;;;;;5049120;28;20057;-69
2023/12/11 10:35:08;;;;;;;14.77;2.45;;;9.70;99.90;;;;;;5050097;28;20094;-70
2023/12/11 10:37:34;;;;;;;13.65;2.78;;;9.70;99.90;;;;;;5049963;28;20088;-70
2023/12/11 10:40:02;;;;;;;11.20;2.30;;;9.60;99.90;;;;;;5051381;28;21447;-69
2023/12/11 10:42:28;;;;;;;14.40;2.30;;;9.60;99.90;;;;;;5050955;28;20052;-69
2023/12/11 10:44:55;;;;;;;7.55;1.55;;;9.60;99.90;;;;;;5049944;28;20044;-69
2023/12/11 10:50:07;;;;;;;;;;;9.90;99.90;;;;;;5051001;28;20065;-68
2023/12/11 10:52:33;;;;;;;7.97;2.50;;;9.50;99.90;;;;;;5046489;28;20335;-69
2023/12/11 10:54:59;;;;;;;10.27;2.58;;;9.60;99.90;;;;;;5050373;28;20052;-70
2023/12/11 10:57:30;;;;;;;7.90;2.97;;;9.70;99.90;;;;;;5050834;28;20044;-70
2023/12/11 10:59:55;;;;;;;7.75;2.03;;;10.20;99.90;;;;;;5046330;28;20041;-70
2023/12/11 11:02:24;;;;;;;10.48;2.53;;;10.60;99.90;;;;;;5051441;28;20396;-70
2023/12/11 11:04:54;;;;;;;10.70;2.17;;;11.00;99.90;;;;;;5050882;28;20041;-70
2023/12/11 11:07:36;;;;;;;10.98;3.10;;;11.70;99.90;;;;;;5049527;28;20566;-69
2023/12/11 11:10:12;;;;;;;13.18;2.85;;;11.10;99.90;;;;;;5049977;28;20171;-70
2023/12/11 11:13:05;;;;;;;13.07;3.40;;;10.70;99.90;;;;;;5050090;28;20128;-70
2023/12/11 11:15:30;;;;;;;20.95;3.55;;;10.50;99.90;;;;;;5054200;28;20065;-70
2023/12/11 11:18:01;;;;;;;16.60;2.85;;;10.10;99.90;;;;;;5050661;28;20061;-69
2023/12/11 11:20:37;;;;;;;15.25;3.35;;;10.00;99.90;;;;;;5058521;28;20131;-70
2023/12/11 11:23:15;;;;;;;;;;;9.80;99.90;;;;;;5044747;28;20064;-70
2023/12/11 11:25:54;;;;;;;19.30;2.95;;;9.60;99.90;;;;;;5055160;28;20280;-70
2023/12/11 11:28:40;;;;;;;20.85;3.50;;;9.50;99.90;;;;;;5053366;28;20041;-70
2023/12/11 11:31:09;;;;;;;21.15;3.35;;;9.40;99.90;;;;;;5056218;28;20083;-72
2023/12/11 11:33:52;;;;;;;18.73;3.70;;;9.40;99.90;;;;;;5054632;28;20052;-71
2023/12/11 11:36:19;;;;;;;14.98;2.80;;;9.30;99.90;;;;;;5055895;28;20061;-71
2023/12/11 11:39:02;;;;;;;13.27;2.67;;;9.20;99.90;;;;;;5055584;28;20481;-70
2023/12/11 11:41:33;;;;;;;12.40;2.40;;;9.20;99.90;;;;;;5053593;28;20508;-69
2023/12/11 11:43:59;;;;;;;13.60;2.67;;;9.20;99.90;;;;;;5054358;28;20073;-69
2023/12/11 11:46:26;;;;;;;17.73;3.08;;;9.30;99.90;;;;;;5054801;28;20144;-69
2023/12/11 11:48:51;;;;;;;9.52;1.48;;;9.50;99.90;;;;;;5054723;28;20059;-70
2023/12/11 11:51:20;;;;;;;18.08;4.18;;;10.40;99.90;;;;;;5055400;28;20413;-71
2023/12/11 11:53:51;;;;;;;14.57;3.75;;;10.60;99.90;;;;;;5054425;28;20055;-71
2023/12/11 11:56:17;;;;;;;13.48;3.58;;;11.80;99.90;;;;;;5053305;28;20452;-71
2023/12/11 11:58:43;;;;;;;19.42;8.32;;;12.60;99.90;;;;;;5054672;28;20068;-71
2023/12/11 12:01:08;;;;;;;15.40;5.30;;;13.10;99.90;;;;;;5054107;28;20405;-71
2023/12/11 12:03:43;;;;;;;9.88;2.25;;;13.80;99.90;;;;;;5055042;28;20041;-71
2023/12/11 12:06:10;;;;;;;6.40;1.77;;;13.70;99.90;;;;;;5055195;28;20049;-70
2023/12/11 12:08:36;;;;;;;8.90;2.10;;;13.40;99.90;;;;;;5055436;28;20444;-70
2023/12/11 12:11:03;;;;;;;9.15;1.75;;;12.70;99.90;;;;;;5053066;28;20382;-70
2023/12/11 12:13:36;;;;;;;4.65;1.33;;;12.00;99.90;;;;;;5055461;28;20469;-70
2023/12/11 12:16:02;;;;;;;8.75;1.80;;;11.50;99.90;;;;;;5053045;28;20505;-70
2023/12/11 12:18:31;;;;;;;9.85;1.80;;;11.00;99.90;;;;;;5054011;28;20091;-70
2023/12/11 12:21:04;;;;;;;7.40;1.65;;;10.90;99.90;;;;;;5055350;28;20041;-70
2023/12/11 12:23:33;;;;;;;11.88;1.80;;;10.30;99.90;;;;;;5054541;28;20131;-70
2023/12/11 12:26:02;;;;;;;9.40;1.95;;;10.10;99.90;;;;;;5052750;28;20092;-70
2023/12/11 12:28:28;;;;;;;12.80;1.75;;;10.30;99.90;;;;;;5053884;28;20080;-70
2023/12/11 12:30:54;;;;;;;7.53;1.65;;;9.60;99.90;;;;;;5052957;28;20083;-70
2023/12/11 12:33:20;;;;;;;10.45;1.70;;;9.50;99.90;;;;;;5053270;28;20130;-70
2023/12/11 12:35:48;;;;;;;6.10;1.50;;;9.60;99.90;;;;;;5054960;28;20488;-70
2023/12/11 12:38:14;;;;;;;6.80;1.40;;;9.50;99.90;;;;;;5052736;28;20484;-69
2023/12/11 12:40:41;;;;;;;7.45;1.23;;;9.50;99.90;;;;;;5053279;28;20049;-70
2023/12/11 12:43:13;;;;;;;7.72;1.20;;;9.40;99.90;;;;;;5054080;28;20064;-70
2023/12/11 12:45:39;;;;;;;9.93;1.55;;;9.30;99.90;;;;;;5052288;28;20077;-70
2023/12/11 12:48:08;;;;;;;8.57;1.42;;;9.20;99.90;;;;;;5053592;28;20088;-70
2023/12/11 12:50:37;;;;;;;8.02;1.63;;;9.10;99.90;;;;;;5053657;28;20392;-70